createdAt,value
2022-09-03T00:00:37.806Z,3.58
2022-09-03T00:03:08.668Z,3.60
2022-09-03T00:06:01.576Z,3.33
2022-09-03T00:08:33.077Z,3.33
2022-09-03T00:11:07.331Z,3.03
2022-09-03T00:13:44.042Z,3.50
2022-09-03T00:16:16.093Z,3.30
2022-09-03T00:18:55.276Z,3.17
2022-09-03T00:21:45.759Z,3.00
2022-09-03T00:24:16.796Z,3.08
2022-09-03T00:26:48.999Z,3.17
2022-09-03T00:29:20.118Z,2.92
2022-09-03T00:32:01.765Z,2.90
2022-09-03T00:34:34.377Z,3.07
2022-09-03T00:37:01.230Z,3.40
2022-09-03T00:39:28.663Z,3.20
2022-09-03T00:42:23.618Z,3.47
2022-09-03T00:45:09.025Z,3.53
2022-09-03T00:47:54.351Z,3.47
2022-09-03T00:50:50.194Z,3.40
2022-09-03T00:53:25.575Z,3.50
2022-09-03T00:56:04.472Z,3.15
2022-09-03T00:58:44.828Z,3.38
2022-09-03T01:01:33.848Z,3.30
2022-09-03T01:04:44.387Z,3.33
2022-09-03T01:07:23.070Z,3.22
2022-09-03T01:10:06.526Z,3.50
2022-09-03T01:12:33.372Z,3.58
2022-09-03T01:15:10.535Z,3.27
2022-09-03T01:17:55.535Z,3.40
2022-09-03T01:20:49.921Z,3.30
2022-09-03T01:23:25.835Z,3.70
2022-09-03T01:26:01.606Z,3.47
2022-09-03T01:28:34.230Z,3.20
2022-09-03T01:31:14.492Z,3.42
2022-09-03T01:34:13.378Z,3.75
2022-09-03T01:37:01.711Z,3.40
2022-09-03T01:40:14.988Z,3.67
2022-09-03T01:42:54.492Z,3.20
2022-09-03T01:45:34.725Z,3.50
2022-09-03T01:48:27.723Z,3.72
2022-09-03T01:51:03.905Z,3.55
2022-09-03T01:53:48.535Z,3.72
2022-09-03T01:56:52.189Z,3.10
2022-09-03T01:59:33.349Z,3.70
2022-09-03T02:02:07.899Z,3.90
2022-09-03T02:04:34.966Z,3.70
2022-09-03T02:07:02.818Z,3.65
2022-09-03T02:09:32.928Z,3.47
2022-09-03T02:12:13.820Z,3.80
2022-09-03T02:14:42.402Z,3.63
2022-09-03T02:17:11.495Z,3.63
2022-09-03T02:19:39.323Z,3.63
2022-09-03T02:22:06.600Z,4.00
2022-09-03T02:24:33.889Z,4.20
2022-09-03T02:27:00.946Z,4.25
2022-09-03T02:29:27.843Z,3.67
2022-09-03T02:31:54.902Z,3.67
2022-09-03T02:34:21.758Z,3.97
2022-09-03T02:36:48.612Z,3.88
2022-09-03T02:39:16.937Z,3.78
2022-09-03T02:41:44.837Z,3.85
2022-09-03T02:44:26.058Z,3.88
2022-09-03T02:47:06.584Z,3.90
2022-09-03T02:49:33.848Z,3.88
2022-09-03T02:52:06.522Z,4.32
2022-09-03T02:54:36.396Z,4.03
2022-09-03T02:57:03.415Z,4.20
2022-09-03T02:59:30.180Z,4.00
2022-09-03T03:01:57.039Z,3.83
2022-09-03T03:04:29.598Z,4.30
2022-09-03T03:06:56.443Z,3.70
2022-09-03T03:09:23.223Z,4.40
2022-09-03T03:11:51.358Z,3.80
2022-09-03T03:14:18.749Z,3.70
2022-09-03T03:16:45.744Z,3.75
2022-09-03T03:19:12.667Z,3.70
2022-09-03T03:21:40.319Z,3.85
2022-09-03T03:24:08.488Z,3.73
2022-09-03T03:26:35.353Z,3.88
2022-09-03T03:29:06.328Z,3.90
2022-09-03T03:31:33.399Z,4.18
2022-09-03T03:34:02.863Z,4.10
2022-09-03T03:36:33.590Z,4.07
2022-09-03T03:39:01.492Z,4.05
2022-09-03T03:41:32.182Z,4.60
2022-09-03T03:44:01.549Z,3.97
2022-09-03T03:46:35.135Z,4.05
2022-09-03T03:49:01.966Z,3.63
2022-09-03T03:51:28.961Z,4.15
2022-09-03T03:53:56.888Z,4.00
2022-09-03T03:56:25.138Z,4.00
2022-09-03T03:58:53.191Z,4.10
2022-09-03T04:01:25.356Z,3.73
2022-09-03T04:03:55.164Z,4.53
2022-09-03T04:06:23.567Z,4.20
2022-09-03T04:08:50.476Z,3.85
2022-09-03T04:11:19.846Z,3.90
2022-09-03T04:13:47.887Z,3.80
2022-09-03T04:16:22.871Z,3.75
2022-09-03T04:18:49.755Z,4.72
2022-09-03T04:21:20.152Z,3.92
2022-09-03T04:23:48.692Z,4.40
2022-09-03T04:26:18.922Z,4.07
2022-09-03T04:28:45.931Z,4.07
2022-09-03T04:31:15.763Z,4.00
2022-09-03T04:33:42.915Z,4.20
2022-09-03T04:36:29.571Z,4.07
2022-09-03T04:38:59.467Z,3.87
2022-09-03T04:41:28.685Z,3.70
2022-09-03T04:43:56.930Z,3.53
2022-09-03T04:46:26.692Z,3.25
2022-09-03T04:48:55.076Z,3.10
2022-09-03T04:51:27.502Z,3.13
2022-09-03T04:54:00.278Z,3.03
2022-09-03T04:56:29.255Z,3.03
2022-09-03T04:58:58.250Z,2.97
2022-09-03T05:01:27.719Z,2.72
2022-09-03T05:03:56.411Z,2.60
2022-09-03T05:06:24.723Z,2.97
2022-09-03T05:08:54.339Z,2.85
2022-09-03T05:11:22.426Z,2.85
2022-09-03T05:13:50.946Z,3.00
2022-09-03T05:16:19.265Z,3.53
2022-09-03T05:18:47.043Z,3.30
2022-09-03T05:21:18.267Z,3.38
2022-09-03T05:23:47.103Z,3.17
2022-09-03T05:26:16.487Z,3.00
2022-09-03T05:28:44.775Z,3.10
2022-09-03T05:31:17.118Z,2.85
2022-09-03T05:33:46.624Z,3.55
2022-09-03T05:36:16.240Z,3.22
2022-09-03T05:38:43.805Z,3.20
2022-09-03T05:41:12.832Z,3.40
2022-09-03T05:43:40.271Z,3.33
2022-09-03T05:46:18.603Z,3.33
2022-09-03T05:48:45.787Z,3.45
2022-09-03T05:51:17.709Z,4.15
2022-09-03T05:53:46.947Z,3.50
2022-09-03T05:56:19.113Z,3.45
2022-09-03T05:58:48.799Z,3.72
2022-09-03T06:01:19.974Z,3.47
2022-09-03T06:03:53.609Z,4.50
2022-09-03T06:06:31.886Z,3.90
2022-09-03T06:09:02.677Z,3.40
2022-09-03T06:11:31.118Z,3.03
2022-09-03T06:14:01.393Z,3.20
2022-09-03T06:16:31.872Z,3.10
2022-09-03T06:19:03.327Z,2.90
2022-09-03T06:21:30.202Z,3.63
2022-09-03T06:23:58.493Z,3.20
2022-09-03T06:26:29.352Z,3.45
2022-09-03T06:28:57.182Z,3.47
2022-09-03T06:31:24.621Z,2.63
2022-09-03T06:33:53.062Z,3.33
2022-09-03T06:36:21.069Z,3.60
2022-09-03T06:38:47.919Z,3.30
2022-09-03T06:41:26.182Z,3.20
2022-09-03T06:44:03.419Z,3.20
2022-09-03T06:46:33.255Z,2.90
2022-09-03T06:49:00.498Z,3.38
2022-09-03T06:51:29.607Z,2.90
2022-09-03T06:54:03.246Z,3.20
2022-09-03T06:56:33.005Z,3.13
2022-09-03T06:59:06.766Z,3.40
2022-09-03T07:01:34.959Z,2.80
2022-09-03T07:04:04.490Z,3.13
2022-09-03T07:06:34.280Z,3.30
2022-09-03T07:09:01.059Z,3.30
2022-09-03T07:11:31.314Z,3.50
2022-09-03T07:13:59.067Z,3.40
2022-09-03T07:16:29.379Z,3.25
2022-09-03T07:18:57.812Z,3.40
2022-09-03T07:21:26.964Z,3.33
2022-09-03T07:23:54.999Z,3.53
2022-09-03T07:26:28.047Z,3.70
2022-09-03T07:28:55.759Z,3.40
2022-09-03T07:31:26.122Z,3.25
2022-09-03T07:33:59.679Z,3.23
2022-09-03T07:36:28.891Z,3.58
2022-09-03T07:39:01.342Z,3.40
2022-09-03T07:41:28.938Z,3.30
2022-09-03T07:43:57.134Z,2.78
2022-09-03T07:46:27.412Z,3.30
2022-09-03T07:48:58.951Z,3.05
2022-09-03T07:51:28.582Z,3.22
2022-09-03T07:53:59.680Z,3.63
2022-09-03T07:56:27.160Z,3.33
2022-09-03T07:58:56.935Z,3.40
2022-09-03T08:01:25.460Z,3.30
2022-09-03T08:03:53.453Z,3.53
2022-09-03T08:06:23.419Z,3.65
2022-09-03T08:09:04.195Z,3.30
2022-09-03T08:11:32.266Z,3.57
2022-09-03T08:14:02.686Z,3.20
2022-09-03T08:16:36.549Z,3.85
2022-09-03T08:19:03.951Z,3.10
2022-09-03T08:21:31.152Z,3.78
2022-09-03T08:24:04.176Z,3.30
2022-09-03T08:26:36.645Z,3.47
2022-09-03T08:29:04.202Z,3.58
2022-09-03T08:31:32.416Z,3.67
2022-09-03T08:34:03.270Z,3.92
2022-09-03T08:36:31.297Z,3.67
2022-09-03T08:39:03.967Z,4.07
2022-09-03T08:41:50.332Z,3.78
2022-09-03T08:44:24.220Z,3.95
2022-09-03T08:47:15.894Z,3.80
2022-09-03T08:49:47.028Z,3.60
2022-09-03T08:52:29.282Z,3.70
2022-09-03T08:55:04.630Z,3.75
2022-09-03T08:57:40.634Z,3.42
2022-09-03T09:00:08.144Z,3.90
2022-09-03T09:02:59.542Z,3.70
2022-09-03T09:05:38.807Z,3.55
2022-09-03T09:08:20.018Z,3.92
2022-09-03T09:10:58.915Z,4.38
2022-09-03T09:13:44.102Z,3.53
2022-09-03T09:16:19.231Z,3.77
2022-09-03T09:18:59.702Z,3.88
2022-09-03T09:21:36.322Z,4.35
2022-09-03T09:24:08.795Z,4.20
2022-09-03T09:26:36.086Z,3.80
2022-09-03T09:29:10.600Z,4.13
2022-09-03T09:31:45.170Z,4.05
2022-09-03T09:34:12.564Z,12.90
2022-09-03T09:36:56.102Z,3.95
2022-09-03T09:39:23.608Z,4.03
2022-09-03T09:42:12.006Z,4.10
2022-09-03T09:44:41.042Z,4.00
2022-09-03T09:47:15.008Z,4.93
2022-09-03T09:49:47.411Z,4.18
2022-09-03T09:52:16.027Z,4.22
2022-09-03T09:54:48.126Z,3.80
2022-09-03T09:57:18.259Z,4.38
2022-09-03T09:59:46.304Z,4.20
2022-09-03T10:02:28.634Z,4.55
2022-09-03T10:05:01.912Z,4.22
2022-09-03T10:07:32.213Z,4.30
2022-09-03T10:10:06.963Z,4.30
2022-09-03T10:12:42.168Z,4.10
2022-09-03T10:15:37.810Z,4.18
2022-09-03T10:18:16.041Z,4.38
2022-09-03T10:21:14.101Z,4.33
2022-09-03T10:23:51.964Z,4.22
2022-09-03T10:26:29.325Z,4.30
2022-09-03T10:29:05.805Z,4.43
2022-09-03T10:32:09.641Z,4.55
2022-09-03T10:35:14.887Z,4.67
2022-09-03T10:38:03.044Z,4.30
2022-09-03T10:40:38.694Z,4.10
2022-09-03T10:43:37.747Z,4.28
2022-09-03T10:46:15.046Z,4.40
2022-09-03T10:49:04.530Z,4.43
2022-09-03T10:51:36.510Z,4.95
2022-09-03T10:54:15.407Z,3.97
2022-09-03T10:57:00.290Z,4.65
2022-09-03T10:59:33.675Z,4.47
2022-09-03T11:02:08.350Z,4.57
2022-09-03T11:04:44.395Z,3.92
2022-09-03T11:07:15.350Z,3.88
2022-09-03T11:09:48.232Z,4.05
2022-09-03T11:12:27.656Z,4.03
2022-09-03T11:15:03.854Z,4.10
2022-09-03T11:17:37.820Z,4.03
2022-09-03T11:20:07.683Z,4.20
2022-09-03T11:22:35.707Z,4.28
2022-09-03T11:25:03.211Z,4.47
2022-09-03T11:27:42.158Z,3.50
2022-09-03T11:30:11.988Z,4.15
2022-09-03T11:32:59.908Z,4.00
2022-09-03T11:35:28.844Z,4.15
2022-09-03T11:38:16.602Z,3.97
2022-09-03T11:41:04.382Z,3.60
2022-09-03T11:43:33.758Z,3.67
2022-09-03T11:46:21.944Z,4.32
2022-09-03T11:48:55.496Z,4.03
2022-09-03T11:51:25.379Z,3.65
2022-09-03T11:54:03.918Z,3.77
2022-09-03T11:56:32.497Z,4.13
2022-09-03T11:59:26.405Z,4.07
2022-09-03T12:02:12.242Z,4.10
2022-09-03T12:04:55.908Z,4.10
2022-09-03T12:07:40.899Z,3.50
2022-09-03T12:10:08.144Z,3.90
2022-09-03T12:13:09.366Z,3.88
2022-09-03T12:16:00.518Z,4.10
2022-09-03T12:18:31.217Z,3.95
2022-09-03T12:21:00.924Z,3.43
2022-09-03T12:23:49.152Z,3.83
2022-09-03T12:26:20.016Z,4.05
2022-09-03T12:28:52.199Z,3.67
2022-09-03T12:31:23.602Z,3.97
2022-09-03T12:33:56.373Z,3.50
2022-09-03T12:36:23.530Z,3.42
2022-09-03T12:39:10.828Z,3.78
2022-09-03T12:41:39.014Z,3.42
2022-09-03T12:44:06.122Z,3.53
2022-09-03T12:46:34.596Z,3.63
2022-09-03T12:52:05.961Z,3.90
2022-09-03T12:54:36.615Z,3.78
2022-09-03T12:57:04.147Z,3.92
2022-09-03T12:59:35.393Z,3.80
2022-09-03T13:02:11.987Z,3.55
2022-09-03T13:04:40.343Z,4.20
2022-09-03T13:07:14.986Z,3.88
2022-09-03T13:09:42.685Z,3.90
2022-09-03T13:12:33.482Z,4.00
2022-09-03T13:15:07.671Z,3.70
2022-09-03T13:17:56.195Z,3.70
2022-09-03T13:20:37.912Z,3.20
2022-09-03T13:23:26.232Z,3.70
2022-09-03T13:25:53.039Z,4.03
2022-09-03T13:28:40.095Z,3.88
2022-09-03T13:31:44.131Z,4.03
2022-09-03T13:34:31.930Z,3.80
2022-09-03T13:37:06.944Z,4.20
2022-09-03T13:39:41.113Z,3.47
2022-09-03T13:42:40.107Z,3.90
2022-09-03T13:45:44.166Z,4.10
2022-09-03T13:48:54.479Z,3.60
2022-09-03T13:51:29.867Z,3.90
2022-09-03T13:54:22.341Z,3.70
2022-09-03T13:57:04.245Z,3.53
2022-09-03T13:59:43.520Z,4.18
2022-09-03T14:02:48.762Z,3.25
2022-09-03T14:05:40.961Z,3.65
2022-09-03T14:08:28.588Z,3.70
2022-09-03T14:11:18.279Z,3.92
2022-09-03T14:13:48.798Z,4.05
2022-09-03T14:16:30.767Z,3.72
2022-09-03T14:19:29.638Z,4.20
2022-09-03T14:22:28.501Z,3.73
2022-09-03T14:25:11.790Z,3.50
2022-09-03T14:27:38.735Z,4.00
2022-09-03T14:30:17.580Z,3.65
2022-09-03T14:33:19.511Z,3.90
2022-09-03T14:36:24.260Z,3.83
2022-09-03T14:39:28.672Z,3.50
2022-09-03T14:42:08.526Z,3.50
2022-09-03T14:45:00.149Z,3.70
2022-09-03T14:47:46.807Z,3.90
2022-09-03T14:50:38.765Z,3.43
2022-09-03T14:53:17.776Z,3.90
2022-09-03T14:56:21.775Z,4.20
2022-09-03T14:59:07.537Z,3.58
2022-09-03T15:01:39.041Z,3.80
2022-09-03T15:04:18.447Z,3.80
2022-09-03T15:07:16.693Z,3.15
2022-09-03T15:09:54.577Z,3.53
2022-09-03T15:12:37.773Z,3.30
2022-09-03T15:15:30.795Z,3.40
2022-09-03T15:17:58.487Z,3.50
2022-09-03T15:20:31.423Z,3.40
2022-09-03T15:23:15.738Z,3.65
2022-09-03T15:25:51.321Z,3.42
2022-09-03T15:28:18.241Z,3.65
2022-09-03T15:31:22.086Z,3.20
2022-09-03T15:34:01.744Z,3.35
2022-09-03T15:36:39.027Z,3.67
2022-09-03T15:39:20.717Z,3.65
2022-09-03T15:41:57.512Z,3.13
2022-09-03T15:44:26.759Z,3.10
2022-09-03T15:47:04.045Z,3.67
2022-09-03T15:49:54.305Z,3.50
2022-09-03T15:52:38.170Z,3.47
2022-09-03T15:55:12.247Z,3.30
2022-09-03T15:57:54.805Z,3.20
2022-09-03T16:00:22.994Z,3.53
2022-09-03T16:02:59.805Z,3.55
2022-09-03T16:05:39.669Z,3.58
2022-09-03T16:08:34.150Z,3.83
2022-09-03T16:11:11.619Z,4.23
2022-09-03T16:13:45.259Z,3.83
2022-09-03T16:16:30.596Z,4.25
2022-09-03T16:19:17.511Z,3.80
2022-09-03T16:22:14.586Z,4.30
2022-09-03T16:24:44.215Z,4.20
2022-09-03T16:27:35.278Z,4.15
2022-09-03T16:30:05.603Z,4.18
2022-09-03T16:32:51.149Z,4.28
2022-09-03T16:35:35.658Z,4.50
2022-09-03T16:38:22.954Z,4.20
2022-09-03T16:41:05.033Z,4.50
2022-09-03T16:43:47.334Z,4.25
2022-09-03T16:46:24.086Z,4.25
2022-09-03T16:49:01.733Z,4.03
2022-09-03T16:51:44.345Z,3.53
2022-09-03T16:54:14.853Z,3.67
2022-09-03T16:57:07.436Z,3.85
2022-09-03T16:59:50.584Z,4.10
2022-09-03T17:02:39.827Z,4.10
2022-09-03T17:05:33.322Z,4.20
2022-09-03T17:08:12.778Z,4.32
2022-09-03T17:10:53.848Z,4.38
2022-09-03T17:13:39.342Z,4.47
2022-09-03T17:16:30.543Z,4.40
2022-09-03T17:19:35.083Z,4.50
2022-09-03T17:22:29.828Z,4.70
2022-09-03T17:25:04.784Z,4.65
2022-09-03T17:28:01.447Z,4.30
2022-09-03T17:30:48.083Z,4.28
2022-09-03T17:33:35.924Z,4.40
2022-09-03T17:36:27.299Z,4.40
2022-09-03T17:39:21.631Z,4.70
2022-09-03T17:41:55.808Z,4.47
2022-09-03T17:44:45.443Z,4.97
2022-09-03T17:47:30.971Z,4.47
2022-09-03T17:50:26.723Z,5.00
2022-09-03T17:53:21.370Z,5.15
2022-09-03T17:55:59.872Z,5.35
2022-09-03T17:58:45.266Z,5.25
2022-09-03T18:01:19.375Z,4.87
2022-09-03T18:03:57.225Z,5.35
2022-09-03T18:06:41.569Z,5.40
2022-09-03T18:09:35.834Z,5.10
2022-09-03T18:12:37.692Z,5.22
2022-09-03T18:15:13.789Z,5.10
2022-09-03T18:18:06.110Z,5.28
2022-09-03T18:21:22.290Z,5.30
2022-09-03T18:24:43.160Z,4.80
2022-09-03T18:28:00.843Z,5.13
2022-09-03T18:30:47.056Z,5.07
2022-09-03T18:33:32.671Z,5.13
2022-09-03T18:36:18.380Z,5.38
2022-09-03T18:39:04.351Z,4.93
2022-09-03T18:41:49.824Z,5.93
2022-09-03T18:45:20.460Z,4.70
2022-09-03T18:48:23.043Z,4.82
2022-09-03T18:51:15.578Z,5.55
2022-09-03T18:54:14.974Z,5.05
2022-09-03T18:57:09.318Z,5.72
2022-09-03T19:00:04.220Z,6.03
2022-09-03T19:02:59.744Z,5.50
2022-09-03T19:06:06.738Z,5.80
2022-09-03T19:09:00.091Z,5.88
2022-09-03T19:11:57.659Z,6.00
2022-09-03T19:14:58.314Z,5.93
2022-09-03T19:18:02.474Z,5.82
2022-09-03T19:20:52.310Z,5.63
2022-09-03T19:23:37.505Z,5.60
2022-09-03T19:26:37.428Z,6.15
2022-09-03T19:29:31.215Z,6.87
2022-09-03T19:32:29.530Z,7.30
2022-09-03T19:35:42.130Z,7.32
2022-09-03T19:38:37.539Z,7.40
2022-09-03T19:41:42.744Z,8.07
2022-09-03T19:44:43.286Z,7.90
2022-09-03T19:47:35.523Z,8.40
2022-09-03T19:50:48.423Z,8.70
2022-09-03T19:53:37.732Z,8.32
2022-09-03T19:56:37.211Z,8.55
2022-09-03T19:59:28.208Z,8.00
2022-09-03T20:02:13.532Z,8.57
2022-09-03T20:05:06.368Z,8.55
2022-09-03T20:07:53.567Z,8.43
2022-09-03T20:10:25.071Z,7.88
2022-09-03T20:13:14.944Z,8.33
2022-09-03T20:15:50.692Z,8.55
2022-09-03T20:18:35.594Z,7.18
2022-09-03T20:21:30.194Z,7.47
2022-09-03T20:24:15.205Z,7.90
2022-09-03T20:27:09.349Z,7.63
2022-09-03T20:30:00.567Z,8.10
2022-09-03T20:32:57.027Z,7.45
2022-09-03T20:35:26.782Z,7.43
2022-09-03T20:38:15.215Z,8.18
2022-09-03T20:41:14.278Z,7.37
2022-09-03T20:43:44.164Z,7.40
2022-09-03T20:46:30.172Z,7.07
2022-09-03T20:49:31.473Z,7.57
2022-09-03T20:52:06.470Z,7.75
2022-09-03T20:54:58.108Z,6.87
2022-09-03T20:57:42.332Z,6.82
2022-09-03T21:00:15.439Z,6.63
2022-09-03T21:03:05.956Z,6.70
2022-09-03T21:05:43.747Z,6.50
2022-09-03T21:08:25.658Z,6.20
2022-09-03T21:11:06.379Z,6.35
2022-09-03T21:13:47.976Z,6.30
2022-09-03T21:16:26.447Z,6.78
2022-09-03T21:19:19.832Z,6.82
2022-09-03T21:22:07.034Z,6.67
2022-09-03T21:24:42.417Z,6.55
2022-09-03T21:27:14.675Z,7.20
2022-09-03T21:29:58.352Z,6.70
2022-09-03T21:32:42.844Z,6.68
2022-09-03T21:35:30.167Z,6.30
2022-09-03T21:38:14.063Z,6.18
2022-09-03T21:40:52.436Z,5.55
2022-09-03T21:43:28.581Z,5.55
2022-09-03T21:46:15.448Z,6.45
2022-09-03T21:48:55.944Z,5.57
2022-09-03T21:51:39.371Z,6.68
2022-09-03T21:54:10.572Z,6.53
2022-09-03T21:56:52.195Z,6.35
2022-09-03T21:59:55.679Z,6.60
2022-09-03T22:02:27.120Z,5.87
2022-09-03T22:04:55.902Z,5.82
2022-09-03T22:07:44.268Z,6.10
2022-09-03T22:10:49.836Z,5.45
2022-09-03T22:13:31.061Z,4.72
2022-09-03T22:16:07.191Z,5.10
2022-09-03T22:18:37.896Z,5.35
2022-09-03T22:21:59.795Z,4.90
2022-09-03T22:24:48.310Z,5.00
2022-09-03T22:27:25.286Z,4.53
2022-09-03T22:30:09.182Z,5.33
2022-09-03T22:32:41.624Z,5.40
2022-09-03T22:35:35.244Z,5.53
2022-09-03T22:38:01.921Z,5.60
2022-09-03T22:40:34.832Z,5.57
2022-09-03T22:43:16.655Z,5.90
2022-09-03T22:46:04.820Z,5.93
2022-09-03T22:48:40.112Z,5.28
2022-09-03T22:51:09.111Z,5.63
2022-09-03T22:53:57.147Z,6.00
2022-09-03T22:56:24.101Z,5.17
2022-09-03T22:59:04.495Z,5.93
2022-09-03T23:01:39.384Z,5.10
2022-09-03T23:04:28.255Z,5.40
2022-09-03T23:07:03.710Z,5.15
2022-09-03T23:09:37.953Z,5.50
2022-09-03T23:12:15.163Z,5.13
2022-09-03T23:14:51.565Z,5.20
2022-09-03T23:19:58.763Z,5.30
2022-09-03T23:22:35.393Z,5.20
2022-09-03T23:25:17.563Z,5.18
2022-09-03T23:27:53.600Z,5.30
2022-09-03T23:30:20.514Z,5.53
2022-09-03T23:32:53.048Z,5.80
2022-09-03T23:35:21.412Z,6.17
2022-09-03T23:38:00.973Z,5.40
2022-09-03T23:40:27.976Z,6.05
2022-09-03T23:43:22.602Z,5.88
2022-09-03T23:46:19.970Z,5.50
2022-09-03T23:48:58.515Z,5.40
2022-09-03T23:52:00.708Z,5.22
2022-09-03T23:54:44.096Z,4.50
2022-09-03T23:57:28.731Z,4.20
